Time;durP1;ratioP1;P1;durP2;ratioP2;P2;SDS_P1;SDS_P2;PMS_P1;PMS_P2;Temp;Humidity;BMP_temperature;BMP_pressure;BME280_temperature;BME280_humidity;BME280_pressure;Samples;Min_cycle;Max_cycle;Signal;HPM_P1;HPM_P2
2022/07/20 00:02:21;;;;;;;4.43;2.87;;;20.10;58.10;;;20.48;46.23;95529.38;5046380;28;20557;-64
2022/07/20 00:04:49;;;;;;;2.93;2.73;;;20.00;58.40;;;20.45;46.58;95535.09;5050609;28;20448;-59
2022/07/20 00:07:16;;;;;;;3.43;2.27;;;20.00;58.30;;;20.38;46.40;95527.81;5048803;28;20475;-58
2022/07/20 00:12:28;;;;;;;3.00;2.10;;;19.90;58.60;;;20.34;46.94;95531.88;5047776;28;20902;-63
2022/07/20 00:14:55;;;;;;;10.83;2.87;;;19.80;58.60;;;20.32;46.87;95527.72;5049935;28;20464;-58
2022/07/20 00:17:23;;;;;;;8.63;2.90;;;19.80;58.60;;;20.31;46.81;95532.25;5037693;28;20472;-58
2022/07/20 00:19:51;;;;;;;3.63;2.50;;;19.80;58.70;;;20.29;47.33;95526.25;5042591;28;20831;-63
2022/07/20 00:22:18;;;;;;;2.17;2.03;;;19.80;58.60;;;20.24;47.12;95526.81;5048639;28;20479;-58
2022/07/20 00:24:45;;;;;;;6.17;3.23;;;19.80;58.80;;;20.22;46.65;95526.16;5050793;28;20451;-58
2022/07/20 00:27:12;;;;;;;2.50;2.33;;;19.80;58.80;;;20.19;46.59;95523.84;5052631;28;21230;-65
2022/07/20 00:29:39;;;;;;;5.70;2.13;;;19.70;58.50;;;20.17;46.55;95519.69;5051585;28;20467;-65
2022/07/20 00:32:07;;;;;;;3.80;2.80;;;19.70;58.60;;;20.16;46.32;95518.06;5050133;28;20495;-64
2022/07/20 00:34:35;;;;;;;2.80;2.60;;;19.60;58.40;;;20.12;47.21;95530.13;5047499;28;20464;-64
2022/07/20 00:37:02;;;;;;;4.90;2.63;;;19.60;58.60;;;20.11;47.19;95536.47;5048438;28;20484;-58
2022/07/20 00:39:30;;;;;;;5.73;2.70;;;19.60;59.00;;;20.09;47.11;95533.16;5050677;28;20999;-58
2022/07/20 00:41:57;;;;;;;9.27;3.80;;;19.60;58.80;;;20.06;46.77;95537.00;5049043;28;20480;-65
2022/07/20 00:44:24;;;;;;;5.80;3.27;;;19.60;58.70;;;20.03;46.53;95537.38;5048518;28;20513;-64
2022/07/20 00:46:54;;;;;;;11.47;3.87;;;19.50;58.60;;;20.00;47.32;95529.72;5047501;28;20524;-58
2022/07/20 00:49:21;;;;;;;4.63;2.90;;;19.50;58.60;;;19.99;47.04;95531.56;5044444;28;20467;-57
2022/07/20 00:51:50;;;;;;;8.83;3.73;;;19.50;58.70;;;19.96;47.14;95528.44;5048262;28;21084;-64
2022/07/20 00:54:19;;;;;;;7.53;3.70;;;19.50;58.90;;;19.95;47.05;95532.13;5049666;28;21052;-58
2022/07/20 00:56:46;;;;;;;6.60;3.40;;;19.50;59.00;;;19.92;47.48;95527.13;5047120;28;20482;-64
2022/07/20 00:59:14;;;;;;;5.00;3.33;;;19.40;60.00;;;19.88;47.61;95526.69;5045955;28;20989;-64
2022/07/20 01:01:41;;;;;;;13.90;3.20;;;19.40;59.50;;;19.84;47.89;95517.38;5039628;28;20480;-58
2022/07/20 01:04:08;;;;;;;19.50;3.40;;;19.40;59.50;;;19.81;47.89;95523.06;5045899;28;20804;-64
2022/07/20 01:06:36;;;;;;;18.03;3.40;;;19.30;59.30;;;19.77;48.12;95519.09;5048964;28;20479;-59
2022/07/20 01:09:04;;;;;;;5.93;4.00;;;19.30;59.70;;;19.73;48.34;95517.78;5049776;28;20947;-64
2022/07/20 01:11:33;;;;;;;15.33;3.83;;;19.30;59.80;;;19.68;48.18;95521.81;5047496;28;20480;-63
2022/07/20 01:14:04;;;;;;;8.30;2.70;;;19.20;59.70;;;19.65;47.77;95519.50;5050838;28;20456;-57
2022/07/20 01:16:31;;;;;;;11.13;2.60;;;19.20;59.80;;;19.63;48.37;95523.38;5048089;28;20533;-57
2022/07/20 01:18:58;;;;;;;8.40;3.30;;;19.20;60.00;;;19.59;48.24;95522.06;5044454;28;20456;-65
2022/07/20 01:21:26;;;;;;;5.33;2.87;;;19.10;60.10;;;19.56;48.66;95519.75;5039707;28;20591;-58
2022/07/20 01:23:54;;;;;;;13.60;3.57;;;19.10;60.60;;;19.50;48.91;95524.81;5046532;28;20460;-64
2022/07/20 01:26:21;;;;;;;13.17;3.57;;;19.10;60.80;;;19.49;48.21;95522.34;5047456;28;20487;-57
2022/07/20 01:28:48;;;;;;;5.20;2.70;;;19.00;60.60;;;19.44;48.25;95524.69;5044777;28;20993;-62
2022/07/20 01:31:15;;;;;;;14.40;3.17;;;19.00;60.70;;;19.40;49.05;95518.06;5045424;28;20577;-58
2022/07/20 01:33:43;;;;;;;2.30;2.10;;;19.00;61.00;;;19.37;49.10;95521.09;5044885;28;21085;-64
2022/07/20 01:36:10;;;;;;;11.43;3.47;;;18.90;60.90;;;19.33;49.29;95512.59;5046286;28;20561;-64
2022/07/20 01:38:39;;;;;;;11.43;2.70;;;18.90;61.30;;;19.30;49.26;95518.28;5047302;28;20480;-57
2022/07/20 01:41:06;;;;;;;4.93;2.40;;;18.90;61.40;;;19.26;49.28;95517.00;5045892;28;20479;-58
2022/07/20 01:43:33;;;;;;;12.73;3.23;;;18.80;61.40;;;19.23;49.20;95512.03;5046156;28;20456;-57
2022/07/20 01:46:00;;;;;;;26.17;2.70;;;18.80;61.80;;;19.21;49.49;95514.88;5046277;28;20530;-64
2022/07/20 01:48:27;;;;;;;7.53;2.93;;;18.80;61.90;;;19.16;49.73;95515.41;5046066;28;20483;-57
2022/07/20 01:50:55;;;;;;;9.70;3.00;;;18.70;61.90;;;19.13;49.25;95525.56;5046213;28;20483;-57
2022/07/20 01:53:22;;;;;;;14.93;3.90;;;18.70;62.00;;;19.10;49.26;95525.91;5045888;28;20824;-58
2022/07/20 01:55:52;;;;;;;9.70;2.10;;;18.70;62.20;;;19.07;49.51;95523.59;5045916;28;20483;-64
2022/07/20 01:58:19;;;;;;;7.63;2.97;;;18.60;62.10;;;19.03;49.53;95528.47;5045830;28;20451;-64
2022/07/20 02:00:46;;;;;;;10.10;2.40;;;18.60;62.10;;;19.01;49.42;95527.81;5046201;28;20857;-64
2022/07/20 02:03:13;;;;;;;5.93;3.47;;;18.60;62.20;;;18.98;49.87;95530.84;5045655;28;20825;-57
2022/07/20 02:05:41;;;;;;;3.93;2.70;;;18.50;62.20;;;18.95;49.81;95532.00;5045952;28;21085;-65
2022/07/20 02:08:08;;;;;;;11.43;3.00;;;18.50;62.40;;;18.92;49.58;95529.69;5045970;28;20886;-63
2022/07/20 02:10:35;;;;;;;3.90;2.20;;;18.50;62.40;;;18.89;49.65;95540.72;5046444;28;20905;-58
2022/07/20 02:13:04;;;;;;;3.97;2.80;;;18.50;62.50;;;18.85;50.19;95535.91;5045355;28;20495;-59
2022/07/20 02:18:16;;;;;;;4.03;2.13;;;18.40;62.80;;;18.76;50.35;95529.75;5039200;28;20465;-57
2022/07/20 02:20:43;;;;;;;3.60;2.40;;;18.30;62.90;;;18.74;50.23;95529.09;5046199;28;20472;-64
2022/07/20 02:23:11;;;;;;;2.33;2.13;;;18.30;63.10;;;18.69;50.06;95537.63;5045926;28;20458;-58
2022/07/20 02:25:38;;;;;;;5.57;2.23;;;18.30;63.20;;;18.64;50.83;95530.13;5045968;28;20562;-59
2022/07/20 02:28:07;;;;;;;8.80;2.90;;;18.20;63.40;;;18.61;50.80;95535.81;5045754;28;20447;-58
2022/07/20 02:30:34;;;;;;;2.73;2.53;;;18.20;63.60;;;18.59;50.49;95536.97;5046090;28;20506;-56
2022/07/20 02:33:02;;;;;;;2.87;2.37;;;18.20;63.80;;;18.55;50.89;95533.84;5045445;28;20483;-64
2022/07/20 02:35:29;;;;;;;3.00;1.70;;;18.10;63.60;;;18.53;50.63;95530.53;5045683;28;20448;-64
2022/07/20 02:37:56;;;;;;;3.53;2.20;;;18.10;63.70;;;18.52;50.98;95533.38;5045480;28;20517;-64
2022/07/20 02:40:23;;;;;;;3.60;2.40;;;18.10;63.80;;;18.49;50.45;95531.06;5045407;28;20513;-64
2022/07/20 02:42:50;;;;;;;5.63;2.60;;;18.10;63.80;;;18.46;50.57;95543.69;5045804;28;20459;-58
2022/07/20 02:45:19;;;;;;;3.77;1.87;;;18.00;63.40;;;18.42;50.35;95537.06;5045864;28;20570;-63
2022/07/20 02:47:47;;;;;;;4.80;2.23;;;18.00;63.60;;;18.40;50.48;95546.22;5045743;28;20517;-63
2022/07/20 02:50:14;;;;;;;6.07;3.40;;;18.00;63.80;;;18.38;50.67;95546.41;5045737;28;20464;-58
2022/07/20 02:52:42;;;;;;;3.17;2.13;;;18.00;64.10;;;18.37;50.59;95543.91;5046173;28;20564;-57
2022/07/20 02:55:09;;;;;;;2.37;2.07;;;17.90;64.00;;;18.36;50.65;95539.59;5046202;28;20533;-65
2022/07/20 02:57:36;;;;;;;5.23;2.70;;;17.90;64.40;;;18.35;50.55;95548.56;5045673;28;20486;-64
2022/07/20 03:00:05;;;;;;;5.43;2.47;;;17.90;64.00;;;18.32;51.16;95547.06;5045789;28;20509;-57
2022/07/20 03:02:34;;;;;;;5.33;2.43;;;17.90;64.30;;;18.30;51.20;95543.75;5046272;28;20475;-64
2022/07/20 03:05:01;;;;;;;5.03;2.27;;;17.90;64.40;;;18.30;50.92;95550.94;5045126;28;20464;-65
2022/07/20 03:07:28;;;;;;;4.07;2.20;;;17.90;64.40;;;18.27;51.51;95552.09;5047919;28;20538;-63
2022/07/20 03:09:55;;;;;;;6.53;2.33;;;17.90;64.60;;;18.27;50.89;95558.25;5045192;28;20460;-58
2022/07/20 03:12:23;;;;;;;7.53;2.87;;;17.90;64.40;;;18.23;51.34;95546.28;5050221;28;20479;-63
2022/07/20 03:14:50;;;;;;;7.40;2.40;;;17.80;64.30;;;18.25;51.69;95556.78;5049607;28;20459;-57
2022/07/20 03:17:17;;;;;;;4.17;2.27;;;17.80;64.90;;;18.24;51.08;95550.59;5048627;28;20475;-58
2022/07/20 03:19:46;;;;;;;2.63;2.43;;;17.80;65.10;;;18.23;51.74;95551.63;5043545;28;20595;-57
2022/07/20 03:22:13;;;;;;;4.40;2.40;;;17.80;65.00;;;18.22;51.33;95559.78;5047971;28;20474;-64
2022/07/20 03:24:41;;;;;;;7.70;3.07;;;17.80;65.40;;;18.20;51.39;95562.59;5047927;28;20513;-58
2022/07/20 03:27:08;;;;;;;6.50;2.70;;;17.80;65.60;;;18.22;51.60;95562.44;5051372;28;20537;-57
2022/07/20 03:29:35;;;;;;;3.90;3.57;;;17.80;65.60;;;18.21;51.87;95566.91;5048635;28;20466;-63
2022/07/20 03:32:02;;;;;;;6.10;3.70;;;17.80;65.60;;;18.22;51.60;95563.25;5045486;28;21129;-65
2022/07/20 03:34:29;;;;;;;3.93;2.70;;;17.80;65.70;;;18.24;51.96;95571.06;5045833;28;20491;-64
2022/07/20 03:36:58;;;;;;;2.00;1.90;;;17.80;65.60;;;18.25;51.44;95564.75;5046696;28;20937;-58
2022/07/20 03:39:25;;;;;;;3.33;2.93;;;17.80;65.60;;;18.27;52.08;95565.41;5049251;28;20459;-63
2022/07/20 03:41:53;;;;;;;2.80;2.47;;;17.80;66.10;;;18.25;51.44;95570.09;5052332;28;20529;-58
2022/07/20 03:44:20;;;;;;;7.50;2.00;;;17.90;66.10;;;18.25;52.00;95572.75;5047399;28;20440;-63
2022/07/20 03:46:47;;;;;;;5.37;3.23;;;17.80;66.00;;;18.26;51.76;95574.38;5046053;28;20483;-65
2022/07/20 03:49:14;;;;;;;5.60;2.60;;;17.80;66.10;;;18.27;51.84;95581.38;5046263;28;20976;-65
2022/07/20 03:51:41;;;;;;;5.47;2.50;;;17.80;66.00;;;18.30;52.11;95572.25;5045355;28;21007;-57
2022/07/20 03:54:10;;;;;;;3.80;3.50;;;17.90;66.10;;;18.33;51.59;95577.22;5047181;28;20537;-63
2022/07/20 03:56:39;;;;;;;10.93;2.50;;;17.90;66.10;;;18.37;51.54;95581.19;5047013;28;20476;-63
2022/07/20 03:59:08;;;;;;;6.40;2.90;;;17.90;66.00;;;18.43;52.01;95580.50;5048008;28;20455;-58
2022/07/20 04:01:35;;;;;;;3.60;3.27;;;17.90;66.70;;;18.46;51.90;95577.50;5041209;28;20486;-60
2022/07/20 04:04:03;;;;;;;4.90;2.73;;;18.00;66.10;;;18.48;51.52;95577.31;5047787;28;20830;-65
2022/07/20 04:06:30;;;;;;;7.40;3.27;;;18.00;66.00;;;18.50;52.23;95575.31;5047559;28;20464;-63
2022/07/20 04:08:57;;;;;;;4.27;3.30;;;18.10;66.50;;;18.51;51.97;95579.66;5047599;28;20502;-64
2022/07/20 04:11:26;;;;;;;9.30;3.47;;;18.10;66.60;;;18.52;52.34;95576.81;5047194;28;21004;-58
2022/07/20 04:13:53;;;;;;;14.73;3.93;;;18.00;66.30;;;18.53;51.82;95589.16;5047804;28;20901;-64
2022/07/20 04:16:20;;;;;;;7.83;3.50;;;18.10;66.70;;;18.54;51.82;95577.47;5047359;28;21023;-65
2022/07/20 04:18:47;;;;;;;7.30;3.17;;;18.10;66.60;;;18.56;51.56;95579.97;5045294;28;20448;-64
2022/07/20 04:21:18;;;;;;;8.77;3.20;;;18.10;66.20;;;18.56;52.15;95583.47;5047646;28;20885;-65
2022/07/20 04:23:45;;;;;;;3.40;3.10;;;18.10;66.10;;;18.59;51.23;95582.28;5046312;28;20448;-59
2022/07/20 04:26:12;;;;;;;8.90;3.40;;;18.20;65.90;;;18.61;51.33;95578.44;5047733;28;20507;-58
2022/07/20 04:28:41;;;;;;;10.93;3.10;;;18.10;65.60;;;18.66;51.49;95582.44;5045484;28;20576;-64
2022/07/20 04:31:08;;;;;;;13.80;2.53;;;18.20;65.50;;;18.73;51.55;95586.06;5046543;28;20471;-59
2022/07/20 04:33:35;;;;;;;4.63;3.30;;;18.20;65.70;;;18.80;51.42;95597.69;5045487;28;21062;-57
2022/07/20 04:36:03;;;;;;;7.63;3.53;;;18.30;66.10;;;18.91;52.16;95591.19;5043389;28;20464;-64
2022/07/20 04:38:30;;;;;;;5.33;2.83;;;18.40;67.00;;;19.02;51.58;95587.31;5047653;28;20549;-64
2022/07/20 04:40:57;;;;;;;5.97;2.20;;;18.50;67.00;;;19.13;51.81;95584.22;5047433;28;20590;-64
2022/07/20 04:43:25;;;;;;;4.10;3.33;;;18.60;67.70;;;19.28;51.57;95595.81;5048054;28;21282;-63
2022/07/20 04:45:53;;;;;;;4.63;2.93;;;18.80;67.10;;;19.41;52.09;95597.06;5052400;28;20484;-64
2022/07/20 04:48:21;;;;;;;5.60;3.13;;;18.80;67.10;;;19.52;51.47;95597.50;5047148;28;20988;-64
2022/07/20 04:50:48;;;;;;;5.63;3.03;;;19.00;66.00;;;19.64;50.88;95591.75;5042247;28;20478;-56
2022/07/20 04:53:15;;;;;;;9.13;3.27;;;19.10;66.30;;;19.76;50.93;95602.84;5051058;28;20519;-59
2022/07/20 04:55:43;;;;;;;4.07;2.70;;;19.20;65.40;;;19.85;50.21;95599.13;5051055;28;21019;-57
2022/07/20 04:58:10;;;;;;;8.33;4.17;;;19.40;64.90;;;19.91;49.78;95603.75;5049853;28;20451;-63
2022/07/20 05:00:37;;;;;;;23.50;5.23;;;19.40;64.50;;;19.97;49.91;95600.38;5040507;28;20479;-63
2022/07/20 05:03:06;;;;;;;4.10;3.33;;;19.50;64.80;;;20.03;50.31;95599.63;5035874;28;20462;-63
2022/07/20 05:05:33;;;;;;;9.07;3.90;;;19.50;64.40;;;20.10;50.07;95604.25;5044795;28;20541;-63
2022/07/20 05:08:02;;;;;;;8.37;3.83;;;19.60;64.40;;;20.19;49.61;95606.66;5047795;28;20447;-59
2022/07/20 05:10:29;;;;;;;7.47;3.20;;;19.70;64.40;;;20.27;49.54;95610.28;5043998;28;20451;-58
2022/07/20 05:12:57;;;;;;;14.77;3.80;;;19.80;64.20;;;20.36;49.77;95612.69;5041984;28;20459;-58
2022/07/20 05:15:24;;;;;;;6.43;2.73;;;19.80;64.30;;;20.45;49.42;95607.25;5046022;28;20876;-59
2022/07/20 05:17:51;;;;;;;7.40;4.10;;;19.90;64.50;;;20.56;49.60;95614.81;5045816;28;20529;-58
2022/07/20 05:20:19;;;;;;;3.80;3.40;;;20.00;64.50;;;20.66;49.36;95615.41;5046083;28;20448;-61
2022/07/20 05:22:47;;;;;;;4.23;2.93;;;20.10;63.80;;;20.78;48.88;95613.09;5045177;28;20452;-58
2022/07/20 05:25:14;;;;;;;3.40;2.83;;;20.20;63.10;;;20.90;48.60;95624.16;5044359;28;20972;-58
2022/07/20 05:27:41;;;;;;;4.93;2.73;;;20.30;62.90;;;21.02;48.56;95624.50;5044909;28;21065;-65
2022/07/20 05:30:09;;;;;;;6.73;3.30;;;20.40;62.60;;;21.16;48.27;95620.16;5043998;28;20460;-65
2022/07/20 05:32:37;;;;;;;5.83;3.70;;;20.60;62.50;;;21.29;47.97;95615.78;5042867;28;20897;-58
2022/07/20 05:35:04;;;;;;;5.60;3.50;;;20.70;61.90;;;21.48;47.75;95614.34;5040079;28;20484;-57
2022/07/20 05:37:33;;;;;;;6.70;3.60;;;20.90;61.80;;;21.69;47.58;95612.75;5041563;28;20475;-58
2022/07/20 05:40:00;;;;;;;7.93;2.90;;;21.00;61.80;;;21.93;47.32;95608.84;5044817;28;20984;-59
2022/07/20 05:42:27;;;;;;;10.70;3.23;;;21.20;61.20;;;22.16;46.85;95603.28;5043306;28;20460;-58
2022/07/20 05:44:55;;;;;;;12.10;3.30;;;21.50;61.20;;;22.41;46.43;95608.22;5044384;28;20444;-64
2022/07/20 05:47:22;;;;;;;25.20;3.57;;;21.70;60.60;;;22.63;46.19;95600.13;5045673;28;20476;-57
2022/07/20 05:49:50;;;;;;;3.23;3.03;;;21.90;60.00;;;22.84;45.27;95607.25;5044029;28;20922;-65
2022/07/20 05:52:17;;;;;;;3.43;3.13;;;22.10;59.40;;;23.06;45.21;95610.66;5037750;28;20484;-63
2022/07/20 05:54:46;;;;;;;7.03;2.87;;;22.40;59.20;;;23.29;44.96;95609.56;5046225;28;20499;-59
2022/07/20 05:57:13;;;;;;;19.67;3.53;;;22.60;58.90;;;23.44;44.84;95616.41;5045843;28;20471;-63
2022/07/20 05:59:40;;;;;;;5.77;2.60;;;22.80;58.10;;;23.63;43.98;95622.03;5045226;28;20451;-63
2022/07/20 06:02:08;;;;;;;3.97;2.70;;;22.90;57.50;;;23.79;43.30;95618.97;5043516;28;21120;-59
2022/07/20 06:04:35;;;;;;;15.03;3.80;;;23.10;57.10;;;23.97;43.74;95612.22;5044748;28;20448;-63
2022/07/20 06:07:02;;;;;;;5.57;2.70;;;23.20;56.90;;;24.16;43.28;95618.63;5044620;28;21074;-66
2022/07/20 06:09:29;;;;;;;7.30;3.10;;;23.40;56.60;;;24.31;43.09;95613.88;5044801;28;20454;-60
2022/07/20 06:11:58;;;;;;;8.87;3.40;;;23.60;56.30;;;24.49;42.32;95617.78;5042453;28;20472;-63
2022/07/20 06:14:25;;;;;;;3.87;3.57;;;23.70;56.10;;;24.68;41.92;95625.03;5042874;28;20487;-62
2022/07/20 06:16:52;;;;;;;7.20;3.10;;;23.90;55.70;;;24.85;42.17;95616.53;5043408;28;20480;-62
2022/07/20 06:19:19;;;;;;;12.67;3.33;;;24.10;55.30;;;25.03;41.47;95619.34;5048619;28;20455;-57
2022/07/20 06:21:47;;;;;;;11.00;3.23;;;24.30;55.00;;;25.15;41.18;95627.59;5046568;28;20475;-58
2022/07/20 06:24:15;;;;;;;8.33;3.37;;;24.40;54.80;;;25.28;41.25;95624.03;5044690;28;20448;-57
2022/07/20 06:26:42;;;;;;;7.00;3.53;;;24.50;54.80;;;25.40;41.39;95616.13;5045252;28;20475;-57
2022/07/20 06:29:11;;;;;;;6.70;3.40;;;24.70;54.60;;;25.56;40.73;95622.88;5045200;28;20501;-58
2022/07/20 06:31:38;;;;;;;10.27;3.53;;;24.80;54.50;;;25.74;40.72;95623.00;5044638;28;20525;-64
2022/07/20 06:34:06;;;;;;;17.40;3.53;;;25.00;54.40;;;25.93;40.24;95617.69;5045019;28;20490;-64
2022/07/20 06:36:34;;;;;;;13.90;3.00;;;25.20;53.50;;;26.05;40.30;95607.91;5044254;28;20498;-63
2022/07/20 06:39:02;;;;;;;5.10;3.13;;;25.30;53.40;;;26.23;39.90;95606.31;5045666;28;20482;-59
2022/07/20 06:41:29;;;;;;;11.70;3.47;;;25.50;53.20;;;26.41;39.54;95610.94;5045453;28;20552;-63
2022/07/20 06:43:56;;;;;;;6.20;3.43;;;25.60;52.80;;;26.59;39.48;95602.06;5045405;28;20955;-62
2022/07/20 06:46:24;;;;;;;10.70;2.97;;;25.80;52.60;;;26.77;39.06;95593.16;5046552;28;20548;-63
2022/07/20 06:48:52;;;;;;;7.87;3.63;;;26.00;52.70;;;26.99;38.98;95607.06;5049635;28;20500;-63
2022/07/20 06:51:19;;;;;;;9.50;3.50;;;26.20;52.40;;;27.20;38.89;95600.38;5053368;28;20485;-63
2022/07/20 06:53:46;;;;;;;8.10;3.90;;;26.40;52.30;;;27.39;38.88;95603.94;5049559;28;20494;-59
2022/07/20 06:56:13;;;;;;;4.27;3.33;;;26.60;52.00;;;27.57;38.17;95602.25;5049025;28;20477;-57
2022/07/20 06:58:41;;;;;;;6.23;3.30;;;26.70;51.40;;;27.72;37.89;95598.06;5048897;28;20458;-63
2022/07/20 07:01:08;;;;;;;5.60;3.00;;;26.90;51.00;;;27.88;37.66;95599.28;5048957;28;20544;-58
2022/07/20 07:03:36;;;;;;;4.47;3.13;;;27.10;50.90;;;28.06;37.34;95600.31;5047893;28;20448;-59
2022/07/20 07:06:04;;;;;;;7.63;3.53;;;27.20;50.60;;;28.23;37.29;95597.75;5049752;28;20524;-57
2022/07/20 07:08:31;;;;;;;10.20;3.30;;;27.40;50.20;;;28.41;37.08;95597.66;5048812;28;20940;-63
2022/07/20 07:10:58;;;;;;;6.60;3.43;;;27.60;50.00;;;28.59;37.10;95591.31;5049293;28;20470;-63
2022/07/20 07:13:25;;;;;;;10.70;3.80;;;27.80;49.60;;;28.79;36.34;95593.66;5048678;28;20521;-58
2022/07/20 07:15:53;;;;;;;6.10;3.00;;;27.90;49.50;;;28.98;36.73;95599.75;5048999;28;20579;-63
2022/07/20 07:18:20;;;;;;;7.07;3.23;;;28.10;49.40;;;29.17;36.01;95587.94;5046854;28;20447;-64
2022/07/20 07:20:48;;;;;;;11.17;3.40;;;28.30;49.10;;;29.33;35.76;95593.47;5048921;28;20471;-63
2022/07/20 07:23:16;;;;;;;10.53;2.93;;;28.50;48.90;;;29.52;36.25;95590.59;5046932;28;20538;-59
2022/07/20 07:25:43;;;;;;;4.60;3.37;;;28.60;48.30;;;29.67;34.90;95599.00;5048714;28;20474;-58
2022/07/20 07:28:10;;;;;;;10.10;2.77;;;28.80;47.80;;;29.86;34.70;95590.69;5049117;28;20455;-64
2022/07/20 07:30:37;;;;;;;7.37;4.23;;;29.00;47.70;;;30.04;34.58;95601.31;5048691;28;20519;-63
2022/07/20 07:33:05;;;;;;;9.93;3.97;;;29.10;47.30;;;30.24;34.94;95597.31;5047211;28;20451;-58
2022/07/20 07:35:32;;;;;;;10.30;3.40;;;29.40;47.00;;;30.44;34.86;95587.88;5048028;28;20526;-59
2022/07/20 07:38:00;;;;;;;8.80;3.50;;;29.60;46.90;;;30.61;33.14;95585.97;5048269;28;20879;-62
2022/07/20 07:40:28;;;;;;;8.20;3.50;;;29.80;45.60;;;30.80;33.97;95582.97;5048507;28;20443;-64
2022/07/20 07:42:55;;;;;;;16.57;3.27;;;29.90;45.70;;;30.81;33.76;95585.44;5048361;28;20602;-59
2022/07/20 07:45:22;;;;;;;5.90;3.07;;;30.00;45.10;;;30.73;32.82;95578.53;5048302;28;20461;-58
2022/07/20 07:47:49;;;;;;;12.67;3.70;;;29.90;45.00;;;30.72;33.23;95576.06;5047852;28;20463;-63
2022/07/20 07:50:17;;;;;;;4.07;2.97;;;29.90;45.00;;;30.82;33.27;95580.84;5047956;28;20454;-65
2022/07/20 07:52:44;;;;;;;4.87;3.20;;;30.00;45.10;;;30.97;33.67;95578.38;5048060;28;20534;-64
2022/07/20 07:55:12;;;;;;;5.80;3.37;;;30.10;45.20;;;31.06;33.60;95576.84;5044701;28;20491;-59
2022/07/20 07:57:40;;;;;;;8.17;3.33;;;30.20;44.90;;;31.19;32.49;95580.28;5043673;28;21125;-63
2022/07/20 08:00:08;;;;;;;3.00;2.80;;;30.30;44.80;;;31.34;32.57;95580.47;5047822;28;20452;-58
2022/07/20 08:02:35;;;;;;;14.97;3.20;;;30.50;44.50;;;31.54;32.43;95577.19;5047088;28;20225;-58
2022/07/20 08:05:02;;;;;;;6.70;3.10;;;30.70;44.40;;;31.73;31.83;95574.09;5048069;28;20258;-63
2022/07/20 08:07:33;;;;;;;10.27;3.30;;;30.90;44.10;;;31.95;31.71;95574.06;5049514;28;20224;-58
2022/07/20 08:10:00;;;;;;;12.03;3.47;;;31.00;43.80;;;32.21;31.57;95561.50;5044400;28;20197;-58
2022/07/20 08:12:29;;;;;;;5.53;3.07;;;31.30;43.90;;;32.46;31.78;95569.06;5048170;28;20225;-64
2022/07/20 08:14:56;;;;;;;5.07;3.10;;;31.50;43.50;;;32.64;31.19;95562.41;5047426;28;20667;-62
2022/07/20 08:17:23;;;;;;;11.93;2.93;;;31.80;42.80;;;32.66;30.03;95562.94;5045997;28;20713;-58
2022/07/20 08:19:50;;;;;;;5.00;2.43;;;31.90;40.70;;;32.59;29.54;95562.31;5047163;28;20201;-58
2022/07/20 08:22:18;;;;;;;4.93;2.67;;;31.90;40.50;;;32.55;29.64;95557.66;5047606;28;20221;-60
2022/07/20 08:24:45;;;;;;;3.60;2.67;;;31.90;40.20;;;32.65;29.22;95555.84;5047159;28;20669;-58
2022/07/20 08:27:13;;;;;;;3.70;2.90;;;31.90;39.80;;;32.91;28.94;95553.28;5047708;28;20302;-58
2022/07/20 08:29:41;;;;;;;6.03;2.60;;;32.10;39.80;;;33.17;28.63;95565.13;5047355;28;20201;-60
2022/07/20 08:32:08;;;;;;;4.87;2.43;;;32.30;39.30;;;33.30;28.30;95563.03;5046287;28;20868;-59
2022/07/20 08:34:36;;;;;;;7.22;3.13;;;32.50;39.00;;;33.32;28.36;95560.84;5046713;28;20229;-63
2022/07/20 08:37:03;;;;;;;6.47;2.80;;;32.50;38.60;;;33.25;27.84;95555.66;5047508;28;20291;-59
2022/07/20 08:39:30;;;;;;;6.43;2.60;;;32.50;38.60;;;33.32;28.28;95555.38;5045308;28;20205;-59
2022/07/20 08:41:57;;;;;;;5.38;2.30;;;32.50;39.00;;;33.46;28.33;95559.25;5046928;28;20266;-58
2022/07/20 08:44:24;;;;;;;4.50;2.72;;;32.60;38.70;;;33.54;27.53;95561.47;5047099;28;20258;-64
2022/07/20 08:46:53;;;;;;;7.40;2.78;;;32.60;38.00;;;33.52;27.22;95555.44;5047263;28;20225;-58
2022/07/20 08:49:20;;;;;;;9.18;2.90;;;32.70;37.50;;;33.29;27.62;95547.75;5046640;28;20213;-64
2022/07/20 08:51:47;;;;;;;4.93;2.35;;;32.50;37.40;;;33.27;27.32;95552.66;5046959;28;20782;-64
2022/07/20 08:54:15;;;;;;;4.50;2.55;;;32.50;37.10;;;33.27;27.80;95545.28;5046993;28;20672;-58
2022/07/20 08:56:42;;;;;;;13.20;2.05;;;32.50;37.80;;;33.39;27.58;95543.16;5046701;28;20263;-64
2022/07/20 08:59:09;;;;;;;4.70;2.50;;;32.50;37.80;;;33.59;27.47;95550.56;5046921;28;20266;-58
2022/07/20 09:01:36;;;;;;;3.15;2.85;;;32.70;37.60;;;33.90;27.51;95541.66;5046126;28;20705;-64
2022/07/20 09:04:09;;;;;;;9.43;2.28;;;32.90;37.80;;;34.27;26.92;95540.56;5045683;28;20680;-60
2022/07/20 09:06:44;;;;;;;3.53;1.77;;;33.30;37.50;;;34.55;27.05;95539.19;5046516;28;20369;-60
2022/07/20 09:09:12;;;;;;;8.38;1.98;;;33.60;36.80;;;34.57;26.21;95528.00;5044685;28;20723;-59
2022/07/20 09:11:39;;;;;;;17.02;2.30;;;33.70;36.10;;;34.45;26.33;95536.47;5046460;28;20283;-59
2022/07/20 09:14:06;;;;;;;5.20;1.90;;;33.70;35.80;;;34.45;26.70;95529.06;5046801;28;20300;-64
2022/07/20 09:16:36;;;;;;;4.20;2.17;;;33.70;35.80;;;34.41;26.66;95528.00;5046369;28;20286;-60
2022/07/20 09:19:04;;;;;;;2.50;2.30;;;33.60;35.70;;;34.46;26.44;95524.44;5045882;28;20258;-64
2022/07/20 09:21:33;;;;;;;1.85;1.75;;;33.70;35.80;;;34.44;26.06;95527.47;5046447;28;20271;-63
2022/07/20 09:24:04;;;;;;;3.45;2.00;;;33.60;35.00;;;34.24;25.70;95522.03;5046507;28;20283;-60
2022/07/20 09:26:31;;;;;;;4.75;2.38;;;33.50;35.00;;;34.09;26.22;95526.34;5045958;28;20221;-59
2022/07/20 09:28:59;;;;;;;5.47;1.98;;;33.40;35.60;;;34.18;25.73;95523.09;5046071;28;20240;-64
2022/07/20 09:31:30;;;;;;;2.60;2.13;;;33.40;35.60;;;34.21;25.89;95514.34;5045483;28;20221;-64
2022/07/20 09:34:13;;;;;;;3.17;1.95;;;33.40;35.60;;;34.10;25.98;95524.47;5045837;28;20617;-64
2022/07/20 09:36:44;;;;;;;8.98;1.83;;;33.30;35.00;;;34.00;25.52;95527.19;5046243;28;20316;-58
2022/07/20 09:39:13;;;;;;;2.47;2.00;;;33.30;35.10;;;34.01;26.09;95512.44;5045899;28;20204;-58
2022/07/20 09:41:41;;;;;;;5.00;1.40;;;33.30;35.00;;;34.05;25.67;95506.16;5046196;28;20705;-63
2022/07/20 09:44:10;;;;;;;8.40;2.15;;;33.30;35.10;;;34.09;25.59;95500.97;5045657;28;20225;-63
2022/07/20 09:46:39;;;;;;;7.07;2.35;;;33.30;35.60;;;34.09;25.36;95498.25;5045755;28;20240;-58
2022/07/20 09:49:08;;;;;;;2.63;1.85;;;33.30;34.90;;;34.12;25.33;95503.16;5045897;28;20315;-58
2022/07/20 09:51:37;;;;;;;11.00;1.80;;;33.30;34.90;;;34.23;25.61;95501.22;5045884;28;20795;-65
2022/07/20 09:54:07;;;;;;;2.35;1.73;;;33.40;34.80;;;34.25;25.41;95499.88;5046926;28;20200;-60
2022/07/20 09:56:36;;;;;;;6.15;1.90;;;33.50;34.90;;;34.15;25.09;95497.16;5045254;28;20238;-60
2022/07/20 09:59:05;;;;;;;4.18;1.95;;;33.40;34.70;;;33.98;25.58;95499.34;5045406;28;20587;-64
2022/07/20 10:01:35;;;;;;;3.45;1.98;;;33.30;35.20;;;33.86;24.93;95497.69;5044910;28;20759;-63
2022/07/20 10:04:05;;;;;;;4.90;1.90;;;33.20;34.30;;;33.78;26.06;95492.78;5043738;28;20196;-58
2022/07/20 10:06:32;;;;;;;6.35;1.90;;;33.10;35.00;;;33.72;25.65;95481.03;5045537;28;20286;-63
2022/07/20 10:08:59;;;;;;;4.57;1.77;;;33.10;34.40;;;33.79;25.52;95485.41;5045712;28;20212;-58
2022/07/20 10:11:28;;;;;;;9.30;1.65;;;33.00;34.80;;;33.72;25.66;95482.94;5041644;28;20224;-64
2022/07/20 10:13:58;;;;;;;5.28;2.00;;;33.00;35.10;;;33.72;25.80;95480.22;5045618;28;20277;-64
2022/07/20 10:16:28;;;;;;;4.05;2.25;;;33.00;35.00;;;33.85;25.76;95474.22;5044480;28;20669;-62
2022/07/20 10:18:56;;;;;;;2.08;1.77;;;33.00;34.70;;;33.95;25.34;95476.13;5044691;28;20742;-64
2022/07/20 10:21:37;;;;;;;5.97;1.88;;;33.10;34.40;;;33.72;24.78;95478.31;5044837;28;20279;-60
2022/07/20 10:24:25;;;;;;;10.68;2.65;;;33.00;33.90;;;33.52;25.24;95473.59;5045847;28;20193;-65
2022/07/20 10:26:55;;;;;;;8.98;2.60;;;32.90;34.40;;;33.58;25.60;95472.53;5043565;28;20570;-59